Terminal Aerodrome Forecast
Issued by NWS Topeka, KS

Home | Current Version | Previous Version | Text Only | Print | Product List | Glossary Off
Versions: 1 2 3 4 5 6 7 8 9 10 11 12 13 14 15 16 17 18 19 20

528
FTUS43 KTOP 141120
TAFTOP
TAF
KTOP 141120Z 1412/1512 15008KT 6SM -SHRA VCTS OVC045CB
     FM141800 19012G19KT P6SM VCSH BKN090
     FM142300 28014G25KT P6SM VCTS OVC040CB
      TEMPO 1423/1502 3SM TSRA BKN025CB
     FM150200 35020G30KT P6SM SCT025=

USA.gov is the U.S. government's official web portal to all federal, state and local government web resources and services.